Time;durP1;ratioP1;P1;durP2;ratioP2;P2;SDS_P1;SDS_P2;PMS_P1;PMS_P2;Temp;Humidity;BMP_temperature;BMP_pressure;BME280_temperature;BME280_humidity;BME280_pressure;Samples;Min_cycle;Max_cycle;Signal;HPM_P1;HPM_P2
2021/03/13 00:02:25;;;;;;;2.97;0.60;;;7.60;47.20;;;5.99;50.69;95385.88;4919556;29;20031;-70
2021/03/13 00:04:51;;;;;;;2.78;0.50;;;7.60;47.50;;;5.98;49.92;95385.06;4918009;29;20032;-70
2021/03/13 00:07:17;;;;;;;4.72;2.10;;;7.60;47.40;;;5.99;50.34;95383.28;4910884;29;20409;-70
2021/03/13 00:09:45;;;;;;;6.90;3.30;;;7.60;47.50;;;5.99;50.56;95386.69;4933231;29;20637;-71
2021/03/13 00:12:10;;;;;;;2.47;0.90;;;7.60;47.50;;;6.00;49.85;95392.72;4936907;29;20521;-71
2021/03/13 00:14:36;;;;;;;5.13;0.70;;;7.60;47.60;;;5.99;50.42;95381.47;4918182;29;20031;-70
2021/03/13 00:17:02;;;;;;;3.15;0.93;;;7.60;47.50;;;5.98;49.61;95377.25;4943334;29;20079;-69
2021/03/13 00:19:28;;;;;;;2.78;0.47;;;7.60;47.30;;;5.99;49.52;95389.31;4922599;29;20107;-70
2021/03/13 00:21:53;;;;;;;2.00;0.70;;;7.60;47.10;;;5.99;49.83;95388.50;4928812;29;20047;-70
2021/03/13 00:24:19;;;;;;;1.88;0.45;;;7.60;46.90;;;6.01;50.30;95395.16;4927702;29;20063;-70
2021/03/13 00:26:45;;;;;;;4.63;0.77;;;7.60;46.80;;;6.02;50.32;95394.16;4929752;29;20089;-70
2021/03/13 00:29:10;;;;;;;2.95;0.80;;;7.60;46.70;;;6.05;49.62;95393.81;4921493;29;20447;-70
2021/03/13 00:31:36;;;;;;;2.17;0.70;;;7.70;46.60;;;6.07;49.16;95402.28;4922030;29;20573;-70
2021/03/13 00:34:02;;;;;;;3.63;0.95;;;7.70;46.40;;;6.10;49.45;95388.03;4940485;29;20035;-70
2021/03/13 00:36:28;;;;;;;1.30;0.63;;;7.70;46.50;;;6.13;49.37;95393.75;4898971;29;20031;-71
2021/03/13 00:38:53;;;;;;;2.38;0.50;;;7.80;46.20;;;6.19;49.35;95399.25;4937524;29;20093;-70
2021/03/13 00:41:19;;;;;;;4.68;0.77;;;7.80;46.30;;;6.21;50.04;95394.66;4908948;29;20091;-70
2021/03/13 00:43:45;;;;;;;3.58;0.60;;;7.80;46.10;;;6.23;49.51;95392.66;4925733;29;20047;-70
2021/03/13 00:46:10;;;;;;;1.90;0.60;;;7.90;46.20;;;6.27;49.06;95399.13;4919659;29;20086;-70
2021/03/13 00:48:36;;;;;;;3.97;0.80;;;7.90;46.00;;;6.31;49.82;95397.78;4919256;29;20666;-70
2021/03/13 00:51:08;;;;;;;4.07;0.77;;;7.90;46.00;;;6.35;49.69;95401.69;4941642;28;20812;-71
2021/03/13 00:53:34;;;;;;;3.92;1.00;;;8.00;46.10;;;6.38;48.59;95401.31;4926735;29;20095;-70
2021/03/13 00:55:59;;;;;;;2.17;0.70;;;8.00;46.10;;;6.39;48.95;95384.66;4916868;29;20055;-71
2021/03/13 00:58:25;;;;;;;2.40;0.60;;;8.00;46.00;;;6.42;49.17;95387.72;4921319;28;20090;-70
2021/03/13 01:00:51;;;;;;;1.73;0.55;;;8.10;46.10;;;6.44;48.68;95384.91;4898698;29;20032;-70
2021/03/13 01:03:16;;;;;;;2.83;1.40;;;8.10;45.90;;;6.47;48.54;95363.66;4927726;29;20043;-70
2021/03/13 01:05:42;;;;;;;3.40;1.20;;;8.10;45.80;;;6.51;48.40;95374.56;4916757;29;20500;-71
2021/03/13 01:08:08;;;;;;;2.38;0.85;;;8.10;46.30;;;6.50;48.93;95362.47;4934972;28;20098;-71
2021/03/13 01:10:36;;;;;;;2.47;0.47;;;8.10;46.40;;;6.52;49.17;95360.50;4916088;29;20032;-70
2021/03/13 01:13:02;;;;;;;2.72;0.93;;;8.10;46.20;;;6.52;49.00;95361.31;4938405;29;20540;-71
2021/03/13 01:15:28;;;;;;;3.55;0.77;;;8.10;46.80;;;6.51;49.74;95349.25;4920200;29;20035;-70
2021/03/13 01:17:54;;;;;;;5.25;0.95;;;8.10;46.70;;;6.50;49.31;95360.69;4917944;28;20118;-71
2021/03/13 01:20:20;;;;;;;2.15;0.43;;;8.10;46.90;;;6.48;49.16;95370.50;4912903;29;20031;-70
2021/03/13 01:22:46;;;;;;;3.20;0.70;;;8.00;47.40;;;6.46;50.00;95362.03;4928097;29;20032;-71
2021/03/13 01:25:13;;;;;;;1.95;0.68;;;8.00;47.50;;;6.44;49.21;95359.63;4921804;29;20058;-70
2021/03/13 01:27:39;;;;;;;2.22;0.88;;;8.00;47.40;;;6.42;49.39;95360.78;4943726;28;20039;-70
2021/03/13 01:30:11;;;;;;;2.28;0.80;;;8.00;47.50;;;6.40;49.68;95368.00;4938168;29;20460;-70
2021/03/13 01:32:37;;;;;;;2.63;0.70;;;7.90;47.80;;;6.36;49.49;95367.56;4934035;29;20376;-70
2021/03/13 01:35:03;;;;;;;1.90;0.60;;;7.90;48.00;;;6.34;49.57;95366.13;4920363;29;20042;-71
2021/03/13 01:37:29;;;;;;;2.92;0.70;;;7.80;48.30;;;6.30;50.17;95365.63;4917741;28;20055;-70
2021/03/13 01:39:54;;;;;;;2.70;0.50;;;7.80;48.50;;;6.27;50.70;95370.41;4944667;28;20091;-70
2021/03/13 01:42:20;;;;;;;3.67;0.50;;;7.80;48.50;;;6.23;50.04;95361.31;4927431;29;20040;-70
2021/03/13 01:44:46;;;;;;;3.75;0.80;;;7.80;48.60;;;6.19;50.52;95365.28;4914017;29;20079;-70
2021/03/13 01:47:21;;;;;;;1.58;0.43;;;7.60;48.70;;;6.16;50.96;95370.88;4920621;29;20031;-70
2021/03/13 01:49:47;;;;;;;3.80;0.50;;;7.70;48.80;;;6.13;50.23;95372.06;4928529;29;20044;-71
2021/03/13 01:52:13;;;;;;;3.75;0.50;;;7.60;49.00;;;6.10;50.16;95370.56;4915435;29;20046;-70
2021/03/13 01:54:39;;;;;;;3.20;0.70;;;7.60;48.70;;;6.06;50.27;95361.50;4926060;29;20092;-70
2021/03/13 01:57:05;;;;;;;5.72;0.77;;;7.60;48.90;;;6.03;50.64;95356.63;4891276;29;20130;-70
2021/03/13 01:59:30;;;;;;;2.70;0.40;;;7.60;49.10;;;6.03;50.70;95354.03;4897500;29;20293;-70
2021/03/13 02:01:56;;;;;;;1.40;0.60;;;7.60;49.10;;;6.01;50.40;95348.16;4911318;29;21455;-70
2021/03/13 02:04:22;;;;;;;1.45;0.57;;;7.60;49.20;;;6.00;51.25;95338.72;4935165;29;20035;-70
2021/03/13 02:07:26;;;;;;;1.48;0.47;;;7.60;49.10;;;6.00;51.00;95341.31;4924600;29;20095;-70
2021/03/13 02:10:06;;;;;;;3.55;0.70;;;7.60;49.20;;;5.98;51.13;95335.47;4903642;29;20583;-70
2021/03/13 02:12:57;;;;;;;2.33;0.70;;;7.60;49.10;;;5.98;50.78;95332.88;4908727;29;20073;-71
2021/03/13 02:15:24;;;;;;;1.92;0.60;;;7.60;48.90;;;6.00;51.38;95343.13;4939998;28;20039;-69
2021/03/13 02:18:36;;;;;;;3.33;0.75;;;7.60;49.00;;;6.01;51.32;95332.50;4932419;29;20062;-70
2021/03/13 02:21:29;;;;;;;2.08;0.70;;;7.60;49.10;;;6.00;51.73;95330.88;4928805;29;20556;-69
2021/03/13 02:24:03;;;;;;;3.28;0.70;;;7.60;49.20;;;6.00;50.59;95330.88;4931314;29;20512;-70
2021/03/13 02:27:02;;;;;;;2.22;0.63;;;7.60;49.20;;;5.98;51.28;95327.66;4934591;29;20565;-70
2021/03/13 02:29:45;;;;;;;3.95;0.57;;;7.60;49.30;;;5.96;51.85;95313.97;4944756;28;20039;-70
2021/03/13 02:32:22;;;;;;;2.58;0.80;;;7.60;49.50;;;5.94;51.65;95318.56;4900292;29;20098;-71
2021/03/13 02:34:48;;;;;;;4.95;1.02;;;7.60;49.70;;;5.92;51.51;95317.94;4944136;29;20035;-70
2021/03/13 02:37:18;;;;;;;3.45;0.40;;;7.50;50.00;;;5.91;52.16;95310.28;4942197;29;20424;-70
2021/03/13 02:39:45;;;;;;;2.72;0.60;;;7.40;50.40;;;5.85;52.04;95307.34;4957298;28;20534;-70
2021/03/13 02:42:10;;;;;;;3.67;0.95;;;7.40;50.70;;;5.84;51.49;95308.34;4935945;29;20040;-70
2021/03/13 02:44:36;;;;;;;2.90;0.52;;;7.50;51.10;;;5.80;51.70;95299.25;4904965;29;20134;-70
2021/03/13 02:47:04;;;;;;;3.20;0.68;;;7.40;51.50;;;5.81;52.57;95307.88;4947939;28;20165;-70
2021/03/13 02:49:29;;;;;;;1.90;0.50;;;7.40;51.80;;;5.78;52.80;95313.47;4941942;29;20170;-72
2021/03/13 02:51:55;;;;;;;4.10;0.90;;;7.30;52.40;;;5.75;51.99;95303.38;4937370;28;20114;-70
2021/03/13 02:54:22;;;;;;;2.45;0.60;;;7.30;52.60;;;5.73;52.34;95319.22;4940088;28;20118;-70
2021/03/13 02:56:48;;;;;;;1.13;0.50;;;7.30;52.90;;;5.71;53.27;95312.56;4921072;29;20048;-71
2021/03/13 02:59:16;;;;;;;1.65;0.65;;;7.30;53.30;;;5.69;53.32;95317.97;4944435;28;20030;-70
2021/03/13 03:01:41;;;;;;;2.25;0.60;;;7.20;53.70;;;5.66;53.31;95312.28;4934787;28;20035;-71
2021/03/13 03:04:07;;;;;;;2.40;0.60;;;7.20;54.20;;;5.64;53.84;95309.84;4928390;28;20058;-70
2021/03/13 03:06:39;;;;;;;3.47;0.43;;;7.10;54.70;;;5.64;55.00;95316.84;4908728;29;20047;-69
2021/03/13 03:09:06;;;;;;;4.85;0.70;;;7.20;54.70;;;5.64;54.39;95303.81;4934087;29;20039;-71
2021/03/13 03:11:32;;;;;;;2.53;0.80;;;7.20;54.80;;;5.63;54.11;95318.66;4920208;29;20036;-71
2021/03/13 03:13:57;;;;;;;4.90;0.60;;;7.20;54.80;;;5.63;54.28;95302.19;4934809;29;20411;-70
2021/03/13 03:16:23;;;;;;;1.90;0.57;;;7.20;55.10;;;5.62;54.08;95308.41;4921195;29;20523;-70
2021/03/13 03:18:51;;;;;;;2.63;0.60;;;7.20;55.30;;;5.60;54.88;95312.97;4944897;28;20036;-70
2021/03/13 03:21:19;;;;;;;2.72;0.77;;;7.20;55.60;;;5.56;55.61;95309.13;4911316;29;20035;-70
2021/03/13 03:23:46;;;;;;;3.13;0.40;;;7.10;55.70;;;5.56;55.73;95311.72;4922648;29;20578;-70
2021/03/13 03:26:12;;;;;;;2.40;0.40;;;7.10;56.10;;;5.54;55.41;95301.47;4914978;29;20073;-70
2021/03/13 03:28:38;;;;;;;2.20;0.50;;;7.10;56.40;;;5.56;55.04;95316.94;4942561;28;20071;-70
2021/03/13 03:31:04;;;;;;;2.85;0.60;;;7.10;56.60;;;5.55;55.57;95313.53;4932113;29;20255;-71
2021/03/13 03:33:29;;;;;;;1.95;0.40;;;7.10;56.80;;;5.55;55.86;95308.31;4959405;28;20530;-70
2021/03/13 03:35:55;;;;;;;1.85;0.55;;;7.20;56.90;;;5.55;55.61;95305.69;4947241;28;20225;-70
2021/03/13 03:38:21;;;;;;;1.95;0.50;;;7.20;57.10;;;5.53;56.48;95308.47;4917927;29;20079;-70
2021/03/13 03:40:47;;;;;;;1.83;0.57;;;7.10;57.70;;;5.53;56.80;95310.28;4937182;29;20060;-70
2021/03/13 03:43:12;;;;;;;2.75;0.65;;;7.10;58.10;;;5.52;56.28;95313.88;4926061;29;20054;-70
2021/03/13 03:45:38;;;;;;;1.60;0.47;;;7.10;58.60;;;5.52;56.83;95306.88;4940662;29;20039;-70
2021/03/13 03:48:10;;;;;;;4.75;0.65;;;7.10;59.10;;;5.51;58.11;95305.25;4932306;29;20047;-70
2021/03/13 03:50:36;;;;;;;2.45;0.60;;;7.10;59.30;;;5.52;57.21;95306.88;4920612;29;21249;-70
2021/03/13 03:53:02;;;;;;;2.13;0.60;;;7.10;59.30;;;5.53;57.89;95305.88;4941114;29;20114;-70
2021/03/13 03:55:28;;;;;;;2.83;0.68;;;7.10;59.50;;;5.52;57.87;95301.66;4924963;29;20027;-70
2021/03/13 03:57:55;;;;;;;1.67;0.40;;;7.10;59.70;;;5.50;58.16;95314.06;4922329;28;20035;-70
2021/03/13 04:00:21;;;;;;;1.80;0.40;;;7.10;59.90;;;5.48;58.51;95329.06;4903165;29;20424;-70
2021/03/13 04:02:47;;;;;;;1.45;0.60;;;7.10;59.90;;;5.46;58.63;95302.38;4932615;29;20055;-71
2021/03/13 04:05:15;;;;;;;2.70;0.90;;;7.10;59.90;;;5.45;58.35;95305.16;4930640;29;20035;-70
2021/03/13 04:07:40;;;;;;;4.07;0.77;;;7.00;60.10;;;5.43;58.07;95313.16;4929221;29;20028;-70
2021/03/13 04:10:08;;;;;;;6.63;0.57;;;7.00;60.30;;;5.41;58.60;95307.28;4917282;29;20027;-70
2021/03/13 04:12:36;;;;;;;3.40;0.60;;;7.00;60.10;;;5.40;59.38;95310.88;4928226;29;20043;-71
2021/03/13 04:15:04;;;;;;;2.97;0.57;;;7.00;60.20;;;5.37;58.50;95289.56;4941912;29;20075;-71
2021/03/13 04:17:30;;;;;;;2.60;0.65;;;6.90;60.20;;;5.37;58.58;95300.78;4929712;29;20027;-70
2021/03/13 04:19:55;;;;;;;2.30;0.60;;;6.90;60.00;;;5.36;58.52;95307.00;4947621;28;20126;-70
2021/03/13 04:22:22;;;;;;;1.38;0.50;;;6.90;60.00;;;5.35;59.13;95300.16;4922313;29;20050;-70
2021/03/13 04:24:48;;;;;;;3.50;0.60;;;6.90;59.90;;;5.34;58.83;95295.94;4928473;29;20110;-70
2021/03/13 04:27:15;;;;;;;2.17;0.60;;;6.90;59.70;;;5.34;58.95;95298.53;4941563;29;20055;-70
2021/03/13 04:29:41;;;;;;;1.80;0.50;;;6.90;59.60;;;5.32;59.07;95300.53;4942289;28;20550;-71
2021/03/13 04:32:07;;;;;;;2.85;0.68;;;6.90;59.40;;;5.31;58.67;95296.28;4932315;29;20059;-71
2021/03/13 04:34:34;;;;;;;2.47;0.45;;;6.90;59.20;;;5.31;58.89;95292.88;4930188;29;20042;-70
2021/03/13 04:37:01;;;;;;;1.73;0.38;;;6.90;59.20;;;5.31;58.68;95301.50;4948167;28;20052;-71
2021/03/13 04:39:26;;;;;;;1.58;0.50;;;6.90;59.20;;;5.32;58.84;95295.31;4916301;29;20115;-70
2021/03/13 04:41:52;;;;;;;1.70;0.43;;;6.90;59.10;;;5.32;58.68;95290.09;4939800;29;20508;-71
2021/03/13 04:44:18;;;;;;;4.28;0.60;;;6.90;59.30;;;5.34;59.26;95295.94;4912908;29;20098;-68
2021/03/13 04:46:44;;;;;;;1.25;0.38;;;7.00;59.10;;;5.34;58.97;95284.69;4925595;29;20079;-69
2021/03/13 04:49:10;;;;;;;2.72;0.50;;;7.00;59.20;;;5.34;58.59;95282.09;4922402;29;20086;-70
2021/03/13 04:51:36;;;;;;;2.78;0.50;;;7.00;59.30;;;5.34;58.92;95282.09;4912390;29;20507;-71
2021/03/13 04:54:01;;;;;;;3.05;0.47;;;6.90;59.50;;;5.33;58.70;95270.84;4944518;28;20134;-70
2021/03/13 04:56:27;;;;;;;2.03;0.35;;;7.00;59.60;;;5.33;58.96;95270.03;4940534;28;20792;-69
2021/03/13 04:58:54;;;;;;;3.05;0.47;;;6.90;59.70;;;5.33;59.29;95270.84;4921688;29;20129;-71
2021/03/13 05:01:20;;;;;;;2.15;0.60;;;6.90;59.90;;;5.34;59.50;95282.91;4913170;28;20051;-70
2021/03/13 05:03:45;;;;;;;4.93;1.05;;;6.90;59.80;;;5.34;58.66;95272.47;4931154;29;20032;-70
2021/03/13 05:06:11;;;;;;;2.75;0.43;;;7.00;59.90;;;5.35;59.44;95268.88;4913791;29;20042;-70
2021/03/13 05:08:37;;;;;;;6.70;0.65;;;7.00;59.80;;;5.36;59.63;95269.69;4944004;28;20058;-71
2021/03/13 05:11:03;;;;;;;2.38;0.55;;;7.00;59.70;;;5.37;59.14;95261.69;4928826;29;20099;-71
2021/03/13 05:13:29;;;;;;;1.55;0.52;;;7.00;59.60;;;5.39;59.21;95254.50;4929676;29;20047;-70
2021/03/13 05:15:55;;;;;;;1.55;0.60;;;7.00;59.20;;;5.43;59.51;95265.38;4929213;29;20071;-71
2021/03/13 05:18:20;;;;;;;3.13;0.80;;;7.10;59.10;;;5.44;59.31;95262.63;4909970;29;20801;-70
2021/03/13 05:20:46;;;;;;;0.93;0.50;;;7.10;58.70;;;5.46;59.41;95263.25;4955635;28;20039;-71
2021/03/13 05:23:12;;;;;;;1.77;0.60;;;7.10;58.80;;;5.48;58.44;95258.66;4899496;29;20341;-70
2021/03/13 05:25:38;;;;;;;2.25;0.50;;;7.10;58.50;;;5.50;59.16;95255.88;4929000;29;20780;-71
2021/03/13 05:28:04;;;;;;;1.85;0.40;;;7.10;58.50;;;5.51;59.07;95263.50;4904237;29;20120;-71
2021/03/13 05:30:29;;;;;;;1.75;0.65;;;7.10;58.10;;;5.52;58.43;95254.69;4911566;29;20035;-70
2021/03/13 05:32:55;;;;;;;0.35;0.30;;;7.10;57.80;;;5.53;58.51;95265.94;4911904;29;20513;-70
2021/03/13 05:35:21;;;;;;;0.98;0.40;;;7.10;58.00;;;5.53;59.00;95260.72;4926294;29;20067;-70
2021/03/13 05:37:47;;;;;;;1.48;0.40;;;7.10;57.80;;;5.53;58.47;95251.09;4905655;29;20176;-70
2021/03/13 05:40:13;;;;;;;1.83;0.40;;;7.10;57.50;;;5.53;58.18;95256.31;4894917;29;20056;-70
2021/03/13 05:42:39;;;;;;;4.28;0.50;;;7.10;57.50;;;5.54;58.42;95251.91;4910788;29;20041;-71
2021/03/13 05:45:06;;;;;;;1.98;0.50;;;7.20;57.40;;;5.54;58.84;95251.91;4909464;29;20579;-68
2021/03/13 05:47:32;;;;;;;1.80;0.35;;;7.20;57.00;;;5.55;57.70;95237.88;4926369;29;20185;-70
2021/03/13 05:50:08;;;;;;;2.63;0.50;;;7.20;57.00;;;5.57;58.03;95248.13;4942735;28;20063;-68
2021/03/13 05:52:35;;;;;;;2.20;0.65;;;7.20;56.80;;;5.56;58.30;95238.69;4936156;29;20569;-69
2021/03/13 05:55:02;;;;;;;0.98;0.40;;;7.30;56.30;;;5.60;58.12;95243.38;4929384;29;20036;-68
2021/03/13 05:57:27;;;;;;;3.20;0.60;;;7.30;55.90;;;5.63;57.86;95245.59;4925760;29;20047;-68
2021/03/13 05:59:53;;;;;;;1.58;0.40;;;7.40;55.70;;;5.66;57.41;95241.81;4909921;29;20040;-68
2021/03/13 06:02:22;;;;;;;1.75;0.60;;;7.40;55.50;;;5.69;57.53;95264.97;4894255;29;20036;-69
2021/03/13 06:04:50;;;;;;;1.35;0.50;;;7.40;55.50;;;5.74;57.30;95245.19;4909725;29;20037;-68
2021/03/13 06:07:20;;;;;;;1.58;0.50;;;7.50;55.20;;;5.78;57.30;95237.78;4910992;29;20074;-69
2021/03/13 06:09:49;;;;;;;1.58;0.38;;;7.50;55.00;;;5.83;57.83;95245.88;4914913;29;20051;-69
2021/03/13 06:12:15;;;;;;;1.95;0.55;;;7.60;54.80;;;5.86;57.54;95224.66;4929274;29;20058;-68
2021/03/13 06:14:41;;;;;;;2.60;0.50;;;7.60;54.90;;;5.89;57.38;95229.53;4928988;29;20535;-69
2021/03/13 06:17:07;;;;;;;1.75;0.50;;;7.60;54.70;;;5.92;57.10;95234.41;4944094;29;20118;-68
2021/03/13 06:19:56;;;;;;;1.88;0.50;;;7.60;55.00;;;5.96;57.46;95235.66;4910215;29;20702;-68
2021/03/13 06:22:42;;;;;;;3.08;0.35;;;7.70;54.80;;;5.99;56.83;95240.53;4909838;29;20035;-68
2021/03/13 06:25:13;;;;;;;2.97;0.60;;;7.80;54.60;;;6.03;57.40;95225.28;4909945;29;20084;-69
2021/03/13 06:27:40;;;;;;;0.80;0.40;;;7.80;54.20;;;6.08;56.59;95228.97;4913966;29;20042;-69
2021/03/13 06:30:07;;;;;;;3.08;0.60;;;7.90;53.90;;;6.14;56.19;95228.28;4928950;29;20035;-69
2021/03/13 06:32:36;;;;;;;3.13;0.50;;;8.00;53.70;;;6.21;56.55;95230.13;4930175;29;20106;-69
2021/03/13 06:35:19;;;;;;;1.45;0.70;;;8.10;53.40;;;6.28;56.04;95229.22;4912815;29;20050;-69
2021/03/13 06:37:45;;;;;;;1.38;0.50;;;8.20;53.30;;;6.33;56.58;95220.81;4923190;29;20127;-69
2021/03/13 06:40:24;;;;;;;1.88;0.80;;;8.30;52.80;;;6.43;56.43;95227.38;4926114;29;20040;-69
2021/03/13 06:42:50;;;;;;;2.20;0.50;;;8.40;52.70;;;6.48;56.72;95232.06;4909628;29;20080;-68
2021/03/13 06:45:19;;;;;;;2.55;1.08;;;8.40;52.10;;;6.53;56.36;95232.28;4909810;29;20036;-67
2021/03/13 06:47:44;;;;;;;1.77;0.70;;;8.40;52.00;;;6.55;55.45;95238.16;4916099;29;20046;-69
2021/03/13 06:50:20;;;;;;;2.75;0.40;;;8.40;52.00;;;6.59;55.34;95236.81;4924082;29;20031;-68
2021/03/13 06:53:07;;;;;;;1.70;0.50;;;8.50;52.00;;;6.65;55.34;95233.44;4948964;28;20027;-69
2021/03/13 06:55:33;;;;;;;1.88;0.43;;;8.60;51.40;;;6.70;55.79;95243.34;4915342;28;20094;-68
2021/03/13 06:58:11;;;;;;;3.25;0.40;;;8.60;51.50;;;6.74;54.54;95232.31;4919606;29;20547;-68
2021/03/13 07:00:38;;;;;;;2.28;0.63;;;8.70;51.20;;;6.81;55.47;95239.44;4911244;29;20667;-68
2021/03/13 07:03:14;;;;;;;4.63;0.80;;;8.90;50.80;;;6.88;55.04;95225.41;4896699;29;20465;-68
2021/03/13 07:05:43;;;;;;;2.00;0.40;;;9.10;50.70;;;7.02;54.37;95236.81;4937796;29;20036;-69
2021/03/13 07:08:31;;;;;;;2.17;0.60;;;9.20;49.60;;;7.13;53.55;95228.44;4912610;29;20040;-69
2021/03/13 07:11:03;;;;;;;2.60;0.50;;;9.30;49.50;;;7.24;54.49;95227.94;4912970;29;20048;-70
2021/03/13 07:13:37;;;;;;;2.65;0.77;;;9.50;49.30;;;7.39;53.68;95233.06;4914135;29;20415;-70
2021/03/13 07:16:28;;;;;;;3.95;1.00;;;9.70;48.80;;;7.52;53.59;95230.56;4917570;29;20035;-69
2021/03/13 07:19:07;;;;;;;;;;;9.90;48.40;;;7.69;53.70;95228.44;4932092;29;20043;-70
2021/03/13 07:21:34;;;;;;;3.03;0.70;;;10.20;47.40;;;7.83;54.29;95224.91;4932143;29;19915;-70
2021/03/13 07:24:03;;;;;;;2.78;0.70;;;10.10;47.40;;;7.89;53.67;95226.75;4911993;29;20091;-70
2021/03/13 07:26:45;;;;;;;4.43;1.25;;;10.00;48.00;;;8.00;53.14;95220.16;4907024;29;20226;-69
2021/03/13 07:29:15;;;;;;;4.38;0.90;;;10.20;47.60;;;8.10;53.02;95233.69;4904420;29;20035;-69
2021/03/13 07:31:55;;;;;;;2.10;0.50;;;10.20;47.50;;;8.19;52.61;95224.69;4930497;29;20042;-70
2021/03/13 07:34:23;;;;;;;1.40;0.70;;;10.50;46.80;;;8.34;53.22;95224.56;4937762;29;20582;-70
2021/03/13 07:36:54;;;;;;;2.65;0.60;;;10.70;46.50;;;8.42;52.45;95221.78;4906490;29;20383;-73
2021/03/13 07:39:37;;;;;;;3.35;0.60;;;10.60;46.70;;;8.61;51.71;95214.19;4925338;29;20047;-72
2021/03/13 07:42:14;;;;;;;4.43;1.65;;;11.10;45.60;;;8.77;51.78;95206.72;4915527;29;20039;-72
2021/03/13 07:44:40;;;;;;;4.00;0.93;;;11.50;44.40;;;9.05;52.21;95211.00;4915839;29;20175;-71
2021/03/13 07:47:11;;;;;;;2.00;0.60;;;11.80;43.40;;;9.27;50.78;95208.97;4914696;29;20091;-73
2021/03/13 07:49:36;;;;;;;;;;;11.80;43.70;;;9.39;50.76;95194.25;4958636;28;20047;-75
2021/03/13 07:52:04;;;;;;;1.85;0.50;;;11.60;44.30;;;9.45;50.84;95203.94;4932661;29;20417;-72
2021/03/13 07:54:31;;;;;;;2.42;0.50;;;11.30;44.90;;;9.41;50.88;95192.22;4923128;29;20040;-68
2021/03/13 07:56:58;;;;;;;2.33;0.65;;;11.00;45.50;;;9.39;50.87;95199.50;4915784;29;20047;-74
2021/03/13 07:59:44;;;;;;;2.13;0.70;;;11.10;45.40;;;9.35;49.84;95193.03;4930802;29;20027;-68
2021/03/13 08:02:43;;;;;;;1.83;0.60;;;11.00;46.00;;;9.18;49.72;95193.44;4930783;29;20039;-74
2021/03/13 08:05:14;;;;;;;2.55;0.90;;;10.40;46.00;;;9.01;50.31;95205.34;4893150;29;20035;-71
2021/03/13 08:08:06;;;;;;;2.33;0.73;;;10.30;47.00;;;8.86;49.97;95196.88;4921407;29;20040;-71
2021/03/13 08:10:49;;;;;;;2.35;0.63;;;10.20;47.30;;;8.69;50.17;95193.00;4926021;29;20078;-71
2021/03/13 08:13:27;;;;;;;3.72;1.55;;;9.90;47.80;;;8.60;50.42;95200.25;4931922;29;20055;-72
2021/03/13 08:16:12;;;;;;;5.03;2.42;;;10.00;47.90;;;8.57;50.54;95204.06;4912637;29;20149;-71
2021/03/13 08:18:50;;;;;;;5.80;1.15;;;10.20;47.80;;;8.55;50.94;95195.59;4912621;29;20039;-71
2021/03/13 08:21:19;;;;;;;6.75;2.60;;;10.20;47.30;;;8.50;50.49;95176.22;4925095;29;20036;-71
2021/03/13 08:24:00;;;;;;;3.03;0.82;;;10.10;47.70;;;8.47;50.90;95184.50;4929174;29;20047;-72
2021/03/13 08:26:35;;;;;;;;;;;10.10;47.60;;;8.39;50.90;95190.72;4914492;29;20059;-68
2021/03/13 08:29:02;;;;;;;2.08;0.60;;;9.90;47.70;;;8.37;51.04;95179.63;4912841;29;19926;-67
2021/03/13 08:31:28;;;;;;;6.75;1.02;;;10.00;48.20;;;8.37;50.90;95179.63;4911708;29;20064;-67
2021/03/13 08:34:06;;;;;;;3.50;0.82;;;10.00;48.10;;;8.35;50.34;95171.16;4913432;29;20099;-67
2021/03/13 08:36:41;;;;;;;1.75;0.82;;;9.90;47.20;;;8.30;50.99;95173.53;4929913;29;20064;-70
2021/03/13 08:39:13;;;;;;;4.95;0.80;;;9.80;47.50;;;8.26;51.05;95172.31;4912526;29;20028;-71
2021/03/13 08:41:44;;;;;;;1.50;0.60;;;9.90;47.60;;;8.25;50.55;95166.25;4926331;29;20039;-70
2021/03/13 08:44:11;;;;;;;;;;;9.90;47.50;;;8.28;50.60;95160.63;4915318;29;20039;-69
2021/03/13 08:46:48;;;;;;;5.82;0.82;;;10.00;47.10;;;8.25;50.10;95154.97;4928594;29;19915;-71
2021/03/13 08:49:39;;;;;;;2.88;0.75;;;9.90;46.80;;;8.28;49.74;95151.97;4927738;29;20110;-72
2021/03/13 08:52:05;;;;;;;3.00;0.55;;;10.00;46.30;;;8.32;50.73;95140.06;4903360;29;20043;-72
2021/03/13 08:54:40;;;;;;;3.40;0.98;;;10.20;45.80;;;8.42;49.78;95113.53;4930691;29;20127;-72
2021/03/13 08:57:12;;;;;;;7.22;1.80;;;10.50;45.20;;;8.55;49.28;95119.59;4926752;29;20046;-74
2021/03/13 08:59:45;;;;;;;1.25;0.40;;;10.70;44.70;;;8.69;49.66;95109.13;4944007;28;20334;-75
2021/03/13 09:02:19;;;;;;;3.95;1.63;;;10.90;43.90;;;8.91;49.31;95107.91;4907538;28;20142;-74
2021/03/13 09:04:54;;;;;;;5.07;0.85;;;11.30;43.00;;;9.12;48.97;95110.31;4914094;29;20051;-74
2021/03/13 09:07:21;;;;;;;4.05;0.90;;;11.50;42.50;;;9.31;48.89;95098.19;4942909;28;20039;-75
2021/03/13 09:09:47;;;;;;;3.60;0.52;;;11.50;42.30;;;9.41;48.77;95082.81;4915773;28;20027;-75
2021/03/13 09:12:14;;;;;;;4.45;0.80;;;11.40;41.90;;;9.43;48.07;95082.59;4907491;29;20051;-74
2021/03/13 09:15:00;;;;;;;1.83;0.60;;;11.20;41.80;;;9.50;46.76;95075.50;4903938;29;20784;-73
2021/03/13 09:17:31;;;;;;;1.90;0.43;;;11.40;41.30;;;9.52;46.61;95081.38;4925226;29;20072;-73
2021/03/13 09:20:12;;;;;;;3.65;0.60;;;11.20;40.90;;;9.53;46.74;95075.09;4914115;29;20480;-73
2021/03/13 09:22:43;;;;;;;;;;;11.30;41.80;;;9.53;45.95;95069.84;4941605;28;20028;-73
2021/03/13 09:25:17;;;;;;;1.92;0.45;;;11.30;41.30;;;9.49;45.33;95058.13;4914620;29;19919;-73
2021/03/13 09:27:43;;;;;;;2.50;0.85;;;11.00;41.00;;;9.52;47.18;95070.88;4905743;29;20036;-74
2021/03/13 09:30:29;;;;;;;2.38;0.77;;;11.10;41.10;;;9.50;45.08;95046.63;4919564;29;20060;-73
2021/03/13 09:32:56;;;;;;;2.75;0.80;;;11.10;41.20;;;9.51;46.69;95056.13;4907928;29;20047;-73
2021/03/13 09:35:26;;;;;;;3.33;0.57;;;11.20;41.20;;;9.57;46.13;95042.16;4926017;29;20044;-73
2021/03/13 09:37:51;;;;;;;6.25;0.90;;;11.40;40.30;;;9.59;46.23;95041.97;4922880;29;20424;-73
2021/03/13 09:40:25;;;;;;;3.45;1.20;;;11.10;40.60;;;9.61;45.62;95030.22;4927769;29;20058;-72
2021/03/13 09:42:51;;;;;;;2.65;1.15;;;11.30;41.20;;;9.63;45.92;95038.69;4914150;29;20119;-73
2021/03/13 09:45:22;;;;;;;3.97;2.05;;;11.30;40.40;;;9.61;45.10;95029.44;4910214;29;20040;-74
2021/03/13 09:47:49;;;;;;;4.00;1.65;;;11.10;40.90;;;9.60;45.88;95049.63;4921016;29;20094;-73
2021/03/13 09:50:16;;;;;;;3.13;0.95;;;11.20;41.00;;;9.59;45.45;95044.59;4931098;29;20063;-74
2021/03/13 09:52:44;;;;;;;5.60;1.95;;;11.20;40.80;;;9.63;45.83;95040.53;4902262;29;20098;-74
2021/03/13 09:55:11;;;;;;;3.15;1.38;;;11.20;41.50;;;9.68;45.52;95041.50;4897684;29;20063;-75
2021/03/13 09:57:39;;;;;;;5.82;2.30;;;11.30;40.80;;;9.75;45.31;95041.50;4928988;29;20035;-73
2021/03/13 10:00:29;;;;;;;4.80;2.67;;;11.50;40.60;;;9.83;45.62;95039.41;4921198;29;20583;-73
2021/03/13 10:02:56;;;;;;;7.45;3.10;;;11.70;41.60;;;9.91;45.30;95029.66;4929117;29;20122;-74
2021/03/13 10:05:25;;;;;;;3.42;1.40;;;11.80;40.80;;;9.99;45.62;95016.31;4928913;29;20511;-74
2021/03/13 10:07:51;;;;;;;5.32;1.60;;;11.90;40.30;;;10.04;45.74;95013.84;4927350;29;20071;-74
2021/03/13 10:10:21;;;;;;;1.83;0.52;;;11.90;39.90;;;10.07;45.10;95003.72;4918769;29;20063;-73
2021/03/13 10:13:04;;;;;;;1.92;0.65;;;11.80;39.80;;;10.10;44.30;95013.00;4921317;29;20032;-73
2021/03/13 10:15:32;;;;;;;2.85;0.80;;;11.70;40.20;;;10.13;45.38;95000.22;4925653;29;20049;-73
2021/03/13 10:18:06;;;;;;;1.67;0.30;;;11.80;39.40;;;10.20;43.88;94989.69;4914776;29;20051;-73
2021/03/13 10:20:48;;;;;;;2.15;0.50;;;11.90;39.80;;;10.32;43.91;94995.88;4928959;29;20118;-73
2021/03/13 10:23:19;;;;;;;1.85;0.73;;;12.20;39.90;;;10.45;44.48;94988.94;4923466;29;20076;-75
2021/03/13 10:26:08;;;;;;;3.33;0.90;;;12.50;39.50;;;10.57;43.34;94995.06;4934687;29;20035;-70
2021/03/13 10:28:39;;;;;;;2.75;0.90;;;12.60;39.10;;;10.67;43.12;94988.31;4912555;29;20036;-71
2021/03/13 10:31:10;;;;;;;2.17;0.98;;;12.50;38.60;;;10.72;44.50;94990.28;4879634;29;20044;-68
2021/03/13 10:33:37;;;;;;;1.42;0.55;;;12.40;39.30;;;10.69;43.57;94975.75;4911344;29;20472;-67
2021/03/13 10:36:03;;;;;;;1.88;0.75;;;12.40;39.40;;;10.68;44.57;94989.13;4939683;28;20122;-69
2021/03/13 10:38:29;;;;;;;3.78;0.70;;;12.20;40.00;;;10.70;43.47;94987.88;4916021;29;20043;-70
2021/03/13 10:40:55;;;;;;;2.50;0.80;;;12.30;39.90;;;10.78;43.86;94993.88;4906066;29;20061;-70
2021/03/13 10:43:35;;;;;;;4.60;0.70;;;12.60;39.40;;;10.85;43.10;94981.47;4899462;29;20157;-70
2021/03/13 10:46:04;;;;;;;2.07;0.60;;;12.60;39.40;;;10.85;42.81;94978.81;4927910;29;20051;-68